Maersk Magellan — 9V6751 — position and weather

sailwx.info

Track history (hours):
 
Tides and Currents Weather Stations Pressure Air Temp Water Temp Dewpoint Dewpoint Depression Visibility Wind Speed Wind Dir Waves Ship Positions

Maersk Magellan

Last reported at 2015-Jan-24 09:32 UTC. Time now 2015-Jan-29 20:22 UTC.
Position S 29°20' E 032°56'.

; draft 8.6 m.

Type: Ship. MMSI: 566549000.

Date/timePositionNaut miles runAvg speedWind from/ knotsBaromVisibWave heightAir tempDewpointWater temp
2015-Jan-24 09:32S 29°20' E 032°56'1111.0
2015-Jan-24 08:32S 29°24' E 032°44'1310.7
2015-Jan-24 07:17S 29°27' E 032°29'810.5
2015-Jan-24 06:29S 29°30' E 032°20'1010.2
2015-Jan-24 05:31S 29°33' E 032°09'1010.1
2015-Jan-24 04:32S 29°36' E 031°58'3010.2
2015-Jan-24 01:33S 29°45' E 031°25'22 4.3
2015-Jan-23 20:31S 29°53' E 031°02'0 0.0
2015-Jan-23 19:31S 29°53' E 031°02'0 0.0
2015-Jan-23 17:31S 29°53' E 031°02'0 0.0
2015-Jan-23 16:31S 29°53' E 031°02'0 0.0
2015-Jan-23 15:31S 29°53' E 031°02'0 0.0
2015-Jan-23 14:31S 29°53' E 031°02'0 0.0
2015-Jan-23 13:31S 29°53' E 031°02'0 0.0
2015-Jan-23 12:31S 29°53' E 031°02'0 0.0
2015-Jan-23 11:31S 29°53' E 031°02'0 0.0
2015-Jan-23 10:31S 29°53' E 031°02'0 0.0
2015-Jan-23 09:19S 29°53' E 031°02'0 0.0
2015-Jan-23 08:31S 29°53' E 031°02'0 0.0
2015-Jan-23 07:31S 29°53' E 031°02'0 0.0
2015-Jan-23 06:25S 29°53' E 031°02'0 0.0
2015-Jan-23 05:31S 29°53' E 031°02'0 0.0
2015-Jan-23 04:31S 29°53' E 031°02'0 0.0
2015-Jan-22 23:31S 29°53' E 031°02'0 0.0
2015-Jan-22 22:31S 29°53' E 031°02'0 0.0
2015-Jan-22 21:31S 29°53' E 031°02'0 0.0
2015-Jan-22 20:31S 29°53' E 031°02'0 0.0
2015-Jan-22 19:19S 29°53' E 031°02'0 0.0
2015-Jan-22 18:25S 29°53' E 031°02'0 0.0
2015-Jan-22 17:31S 29°53' E 031°02'0 0.0
2015-Jan-22 16:31S 29°53' E 031°02'0 0.0
2015-Jan-22 10:31S 29°53' E 031°02'0 0.0
2015-Jan-22 06:13S 29°53' E 031°02'0 0.0
2015-Jan-22 00:07S 29°53' E 031°02'0 0.0
2015-Jan-21 23:31S 29°53' E 031°02'0 0.0
2015-Jan-21 22:49S 29°53' E 031°02'0 0.1
2015-Jan-21 22:43S 29°53' E 031°02'0 0.0
2015-Jan-21 22:31S 29°53' E 031°02'0 0.0
2015-Jan-21 21:31S 29°53' E 031°02'0 0.0
2015-Jan-21 20:31S 29°53' E 031°02'0 0.0
2015-Jan-21 19:31S 29°53' E 031°02'0 0.0
2015-Jan-21 18:31S 29°53' E 031°02'0 0.0
2015-Jan-21 17:31S 29°53' E 031°02'0 0.0
2015-Jan-21 16:31S 29°53' E 031°02'0 0.0
2015-Jan-21 15:31S 29°53' E 031°02'0 0.0
2015-Jan-21 14:31S 29°53' E 031°02'0 0.0
2015-Jan-21 13:31S 29°53' E 031°02'0 0.0
2015-Jan-21 12:31S 29°53' E 031°02'0 0.1
2015-Jan-21 11:33S 29°53' E 031°02'6 6.4
2015-Jan-21 10:34S 29°48' E 031°06'5 4.7
2015-Jan-21 09:30S 29°47' E 031°11'0 0.0
2015-Jan-21 08:30S 29°47' E 031°11'0 0.0
2015-Jan-21 07:33S 29°47' E 031°11'0 0.0
2015-Jan-21 06:27S 29°47' E 031°12'0 0.0
2015-Jan-21 05:32S 29°47' E 031°12'0 0.0
2015-Jan-21 04:25S 29°47' E 031°11'0 0.1
2015-Jan-21 03:31S 29°47' E 031°12'0 0.0
2015-Jan-21 02:31S 29°47' E 031°12'0 0.0
2015-Jan-21 01:23S 29°47' E 031°12'0 0.1
2015-Jan-21 00:29S 29°47' E 031°11'0 0.0
2015-Jan-20 23:29S 29°47' E 031°11'0 0.0
2015-Jan-20 22:23S 29°47' E 031°11'0 0.0
2015-Jan-20 21:32S 29°47' E 031°11'0 0.0
2015-Jan-20 20:28S 29°47' E 031°11'0 0.1
2015-Jan-20 19:22S 29°47' E 031°11'0 0.0
2015-Jan-20 18:22S 29°47' E 031°11'0 0.0
2015-Jan-20 17:33S 29°47' E 031°11'0 0.0
2015-Jan-20 16:33S 29°47' E 031°11'0 0.0
2015-Jan-20 15:33S 29°47' E 031°12'0 0.0
2015-Jan-20 14:33S 29°47' E 031°12'0 0.0
2015-Jan-20 13:33S 29°47' E 031°12'0 0.0
2015-Jan-20 12:27S 29°47' E 031°12'0 0.0
2015-Jan-20 11:33S 29°47' E 031°12'0 0.0
2015-Jan-20 10:21S 29°47' E 031°12'0 0.0
2015-Jan-20 09:33S 29°47' E 031°12'0 0.0
2015-Jan-20 08:26S 29°47' E 031°12'0 0.0
2015-Jan-20 07:29S 29°47' E 031°12'0 0.0
2015-Jan-20 06:29S 29°47' E 031°12'0 0.0
2015-Jan-20 05:31S 29°47' E 031°12'0 0.0
2015-Jan-20 04:32S 29°47' E 031°12'0 0.0
2015-Jan-20 02:22S 29°47' E 031°12'0 0.0
2015-Jan-20 01:19S 29°47' E 031°12'0 0.0
2015-Jan-20 00:28S 29°47' E 031°12'0 0.0
2015-Jan-19 23:32S 29°47' E 031°12'0 0.0
2015-Jan-19 22:33S 29°47' E 031°12'0 0.0
2015-Jan-19 21:33S 29°47' E 031°12'0 0.0
2015-Jan-19 20:33S 29°47' E 031°12'0 0.0
2015-Jan-19 19:33S 29°47' E 031°12'0 0.0
2015-Jan-19 18:33S 29°47' E 031°12'0 0.0
2015-Jan-19 17:33S 29°47' E 031°12'0 0.0
2015-Jan-19 16:33S 29°47' E 031°12'0 0.0
2015-Jan-19 15:33S 29°47' E 031°12'0 0.0
2015-Jan-19 14:33S 29°47' E 031°12'0 0.0
2015-Jan-19 13:33S 29°47' E 031°12'0 0.0
2015-Jan-19 12:28S 29°47' E 031°12'0 0.0
2015-Jan-19 09:04S 29°47' E 031°12'0 0.0
2015-Jan-19 08:31S 29°47' E 031°12'0 0.0
2015-Jan-19 07:33S 29°47' E 031°12'0 0.0
2015-Jan-19 06:29S 29°47' E 031°12'0 0.0
2015-Jan-19 05:33S 29°47' E 031°12'0 0.0
2015-Jan-19 04:18S 29°47' E 031°12'0 0.0
2015-Jan-19 03:32S 29°47' E 031°12'0 0.0
2015-Jan-19 02:31S 29°47' E 031°12'0 0.0
2015-Jan-19 01:30S 29°47' E 031°12'0 0.0
2015-Jan-19 00:18S 29°47' E 031°12'0 0.0
2015-Jan-18 22:24S 29°47' E 031°12'0 0.0
2015-Jan-18 21:30S 29°47' E 031°12'0 0.0
2015-Jan-18 20:18S 29°47' E 031°12'0 0.0
2015-Jan-18 19:30S 29°47' E 031°12'0 0.0
2015-Jan-18 17:18S 29°47' E 031°12'0 0.0
2015-Jan-18 16:30S 29°47' E 031°12'0 0.0
2015-Jan-18 14:18S 29°47' E 031°12'0 0.0
2015-Jan-18 13:24S 29°47' E 031°12'0 0.0
2015-Jan-18 12:33S 29°47' E 031°12'0 0.0
2015-Jan-18 11:31S 29°47' E 031°12'0 0.0
2015-Jan-18 10:25S 29°47' E 031°12'0 0.0
2015-Jan-18 09:27S 29°47' E 031°12'0 0.0
2015-Jan-18 08:33S 29°47' E 031°12'0 0.0
2015-Jan-18 07:33S 29°47' E 031°12'0 0.0
2015-Jan-18 05:33S 29°47' E 031°12'0 0.0
2015-Jan-18 04:33S 29°47' E 031°12'0 0.0
2015-Jan-18 03:33S 29°47' E 031°12'0 0.0
2015-Jan-18 02:26S 29°47' E 031°12'0 0.0
2015-Jan-18 01:29S 29°47' E 031°12'0 0.0
2015-Jan-18 00:28S 29°47' E 031°12'0 0.0
2015-Jan-17 23:32S 29°47' E 031°12'0 0.0
2015-Jan-17 22:24S 29°47' E 031°12'0 0.0
2015-Jan-17 21:12S 29°47' E 031°12'0 0.0
2015-Jan-17 20:31S 29°47' E 031°12'0 0.0
2015-Jan-17 19:17S 29°47' E 031°12'3 3.9
2015-Jan-17 18:34S 29°48' E 031°09'8 7.7
2015-Jan-17 17:32S 29°53' E 031°02'0 0.0
2015-Jan-17 16:14S 29°53' E 031°02'0 0.0
2015-Jan-17 15:32S 29°53' E 031°02'0 0.0
2015-Jan-17 14:32S 29°53' E 031°02'0 0.0
2015-Jan-17 13:26S 29°53' E 031°02'0 0.0
2015-Jan-17 12:32S 29°53' E 031°02'0 0.0
2015-Jan-17 11:20S 29°53' E 031°02'0 0.0
2015-Jan-17 10:32S 29°53' E 031°02'0 0.0
2015-Jan-17 09:32S 29°53' E 031°02'0 0.0
2015-Jan-17 08:32S 29°53' E 031°02'0 0.0
2015-Jan-17 07:20S 29°53' E 031°02'0 0.0
2015-Jan-17 06:32S 29°53' E 031°02'0 0.0
2015-Jan-17 05:26S 29°53' E 031°02'0 0.0
2015-Jan-16 18:20S 29°53' E 031°02'0 0.0
2015-Jan-16 17:26S 29°53' E 031°02'0 0.0
2015-Jan-16 16:32S 29°53' E 031°02'0 0.0
2015-Jan-16 14:26S 29°53' E 031°02'0 0.0
2015-Jan-16 13:32S 29°53' E 031°02'0 0.0
2015-Jan-16 12:26S 29°53' E 031°02'0 0.0
2015-Jan-16 09:32S 29°53' E 031°02'0 0.0
2015-Jan-16 08:20S 29°53' E 031°02'0 0.0
2015-Jan-16 07:26S 29°53' E 031°02'0 0.0
2015-Jan-16 06:26S 29°53' E 031°02'0 0.0
2015-Jan-16 05:32S 29°53' E 031°02'0 0.0
2015-Jan-16 04:20S 29°53' E 031°02'0 0.0
2015-Jan-15 22:14S 29°53' E 031°02'0 0.0
2015-Jan-15 20:32S 29°53' E 031°02'0 0.0
2015-Jan-15 19:26S 29°53' E 031°02'0 0.0
2015-Jan-15 18:14S 29°53' E 031°02'0 0.0
2015-Jan-15 17:14S 29°53' E 031°02'0 0.0
2015-Jan-15 16:08S 29°53' E 031°02'0 0.0
2015-Jan-15 15:26S 29°53' E 031°02'0 0.0
2015-Jan-15 14:26S 29°53' E 031°02'0 0.0
2015-Jan-15 13:32S 29°53' E 031°02'0 0.0
2015-Jan-15 11:32S 29°53' E 031°02'0 0.0
2015-Jan-15 10:32S 29°53' E 031°02'0 0.0
2015-Jan-15 09:32S 29°53' E 031°02'0 0.0
2015-Jan-15 08:32S 29°53' E 031°02'0 0.0
2015-Jan-15 07:20S 29°53' E 031°02'0 0.0
2015-Jan-15 05:32S 29°53' E 031°02'0 0.0
2015-Jan-15 04:32S 29°53' E 031°02'0 0.0
2015-Jan-15 03:32S 29°53' E 031°02'0 0.0
2015-Jan-15 02:14S 29°53' E 031°02'0 0.0
2015-Jan-15 01:26S 29°53' E 031°02'0 0.0
2015-Jan-15 00:26S 29°53' E 031°02'0 0.0
2015-Jan-14 23:32S 29°53' E 031°02'0 0.0
2015-Jan-14 22:32S 29°53' E 031°02'0 0.0
2015-Jan-14 21:32S 29°53' E 031°02'0 0.0
2015-Jan-14 20:32S 29°53' E 031°02'0 0.0
2015-Jan-14 19:20S 29°53' E 031°02'0 0.0
2015-Jan-14 17:14S 29°53' E 031°02'0 0.0
2015-Jan-14 16:26S 29°53' E 031°02'0 0.0
2015-Jan-14 15:32S 29°53' E 031°02'0 0.0
2015-Jan-14 14:20S 29°53' E 031°02'0 0.0
2015-Jan-14 13:32S 29°53' E 031°02'0 0.0
2015-Jan-14 12:32S 29°53' E 031°02'0 0.0
2015-Jan-14 11:20S 29°53' E 031°02'0 0.0
2015-Jan-14 10:32S 29°53' E 031°02'  
Track history (hours):
 
Tides and Currents Weather Stations Pressure Air Temp Water Temp Dewpoint Dewpoint Depression Visibility Wind Speed Wind Dir Waves Ship Positions

Maersk Magellan

Last reported at 2015-Jan-24 09:32 UTC. Time now 2015-Jan-29 20:22 UTC.
Position S 29°20' E 032°56'.

; draft 8.6 m.

Type: Ship. MMSI: 566549000.

Date/timePositionNaut miles runAvg speedWind from/ knotsBaromVisibWave heightAir tempDewpointWater temp
2015-Jan-24 09:32S 29°20' E 032°56'1111.0
2015-Jan-24 08:32S 29°24' E 032°44'1310.7
2015-Jan-24 07:17S 29°27' E 032°29'810.5
2015-Jan-24 06:29S 29°30' E 032°20'1010.2
2015-Jan-24 05:31S 29°33' E 032°09'1010.1
2015-Jan-24 04:32S 29°36' E 031°58'3010.2
2015-Jan-24 01:33S 29°45' E 031°25'22 4.3
2015-Jan-23 20:31S 29°53' E 031°02'0 0.0
2015-Jan-23 19:31S 29°53' E 031°02'0 0.0
2015-Jan-23 17:31S 29°53' E 031°02'0 0.0
2015-Jan-23 16:31S 29°53' E 031°02'0 0.0
2015-Jan-23 15:31S 29°53' E 031°02'0 0.0
2015-Jan-23 14:31S 29°53' E 031°02'0 0.0
2015-Jan-23 13:31S 29°53' E 031°02'0 0.0
2015-Jan-23 12:31S 29°53' E 031°02'0 0.0
2015-Jan-23 11:31S 29°53' E 031°02'0 0.0
2015-Jan-23 10:31S 29°53' E 031°02'0 0.0
2015-Jan-23 09:19S 29°53' E 031°02'0 0.0
2015-Jan-23 08:31S 29°53' E 031°02'0 0.0
2015-Jan-23 07:31S 29°53' E 031°02'0 0.0
2015-Jan-23 06:25S 29°53' E 031°02'0 0.0
2015-Jan-23 05:31S 29°53' E 031°02'0 0.0
2015-Jan-23 04:31S 29°53' E 031°02'0 0.0
2015-Jan-22 23:31S 29°53' E 031°02'0 0.0
2015-Jan-22 22:31S 29°53' E 031°02'0 0.0
2015-Jan-22 21:31S 29°53' E 031°02'0 0.0
2015-Jan-22 20:31S 29°53' E 031°02'0 0.0
2015-Jan-22 19:19S 29°53' E 031°02'0 0.0
2015-Jan-22 18:25S 29°53' E 031°02'0 0.0
2015-Jan-22 17:31S 29°53' E 031°02'0 0.0
2015-Jan-22 16:31S 29°53' E 031°02'0 0.0
2015-Jan-22 10:31S 29°53' E 031°02'0 0.0
2015-Jan-22 06:13S 29°53' E 031°02'0 0.0
2015-Jan-22 00:07S 29°53' E 031°02'0 0.0
2015-Jan-21 23:31S 29°53' E 031°02'0 0.0
2015-Jan-21 22:49S 29°53' E 031°02'0 0.1
2015-Jan-21 22:43S 29°53' E 031°02'0 0.0
2015-Jan-21 22:31S 29°53' E 031°02'0 0.0
2015-Jan-21 21:31S 29°53' E 031°02'0 0.0
2015-Jan-21 20:31S 29°53' E 031°02'0 0.0
2015-Jan-21 19:31S 29°53' E 031°02'0 0.0
2015-Jan-21 18:31S 29°53' E 031°02'0 0.0
2015-Jan-21 17:31S 29°53' E 031°02'0 0.0
2015-Jan-21 16:31S 29°53' E 031°02'0 0.0
2015-Jan-21 15:31S 29°53' E 031°02'0 0.0
2015-Jan-21 14:31S 29°53' E 031°02'0 0.0
2015-Jan-21 13:31S 29°53' E 031°02'0 0.0
2015-Jan-21 12:31S 29°53' E 031°02'0 0.1
2015-Jan-21 11:33S 29°53' E 031°02'6 6.4
2015-Jan-21 10:34S 29°48' E 031°06'5 4.7
2015-Jan-21 09:30S 29°47' E 031°11'0 0.0
2015-Jan-21 08:30S 29°47' E 031°11'0 0.0
2015-Jan-21 07:33S 29°47' E 031°11'0 0.0
2015-Jan-21 06:27S 29°47' E 031°12'0 0.0
2015-Jan-21 05:32S 29°47' E 031°12'0 0.0
2015-Jan-21 04:25S 29°47' E 031°11'0 0.1
2015-Jan-21 03:31S 29°47' E 031°12'0 0.0
2015-Jan-21 02:31S 29°47' E 031°12'0 0.0
2015-Jan-21 01:23S 29°47' E 031°12'0 0.1
2015-Jan-21 00:29S 29°47' E 031°11'0 0.0
2015-Jan-20 23:29S 29°47' E 031°11'0 0.0
2015-Jan-20 22:23S 29°47' E 031°11'0 0.0
2015-Jan-20 21:32S 29°47' E 031°11'0 0.0
2015-Jan-20 20:28S 29°47' E 031°11'0 0.1
2015-Jan-20 19:22S 29°47' E 031°11'0 0.0
2015-Jan-20 18:22S 29°47' E 031°11'0 0.0
2015-Jan-20 17:33S 29°47' E 031°11'0 0.0
2015-Jan-20 16:33S 29°47' E 031°11'0 0.0
2015-Jan-20 15:33S 29°47' E 031°12'0 0.0
2015-Jan-20 14:33S 29°47' E 031°12'0 0.0
2015-Jan-20 13:33S 29°47' E 031°12'0 0.0
2015-Jan-20 12:27S 29°47' E 031°12'0 0.0
2015-Jan-20 11:33S 29°47' E 031°12'0 0.0
2015-Jan-20 10:21S 29°47' E 031°12'0 0.0
2015-Jan-20 09:33S 29°47' E 031°12'0 0.0
2015-Jan-20 08:26S 29°47' E 031°12'0 0.0
2015-Jan-20 07:29S 29°47' E 031°12'0 0.0
2015-Jan-20 06:29S 29°47' E 031°12'0 0.0
2015-Jan-20 05:31S 29°47' E 031°12'0 0.0
2015-Jan-20 04:32S 29°47' E 031°12'0 0.0
2015-Jan-20 02:22S 29°47' E 031°12'0 0.0
2015-Jan-20 01:19S 29°47' E 031°12'0 0.0
2015-Jan-20 00:28S 29°47' E 031°12'0 0.0
2015-Jan-19 23:32S 29°47' E 031°12'0 0.0
2015-Jan-19 22:33S 29°47' E 031°12'0 0.0
2015-Jan-19 21:33S 29°47' E 031°12'0 0.0
2015-Jan-19 20:33S 29°47' E 031°12'0 0.0
2015-Jan-19 19:33S 29°47' E 031°12'0 0.0
2015-Jan-19 18:33S 29°47' E 031°12'0 0.0
2015-Jan-19 17:33S 29°47' E 031°12'0 0.0
2015-Jan-19 16:33S 29°47' E 031°12'0 0.0
2015-Jan-19 15:33S 29°47' E 031°12'0 0.0
2015-Jan-19 14:33S 29°47' E 031°12'0 0.0
2015-Jan-19 13:33S 29°47' E 031°12'0 0.0
2015-Jan-19 12:28S 29°47' E 031°12'0 0.0
2015-Jan-19 09:04S 29°47' E 031°12'0 0.0
2015-Jan-19 08:31S 29°47' E 031°12'0 0.0
2015-Jan-19 07:33S 29°47' E 031°12'0 0.0
2015-Jan-19 06:29S 29°47' E 031°12'0 0.0
2015-Jan-19 05:33S 29°47' E 031°12'0 0.0
2015-Jan-19 04:18S 29°47' E 031°12'0 0.0
2015-Jan-19 03:32S 29°47' E 031°12'0 0.0
2015-Jan-19 02:31S 29°47' E 031°12'0 0.0
2015-Jan-19 01:30S 29°47' E 031°12'0 0.0
2015-Jan-19 00:18S 29°47' E 031°12'0 0.0
2015-Jan-18 22:24S 29°47' E 031°12'0 0.0
2015-Jan-18 21:30S 29°47' E 031°12'0 0.0
2015-Jan-18 20:18S 29°47' E 031°12'0 0.0
2015-Jan-18 19:30S 29°47' E 031°12'0 0.0
2015-Jan-18 17:18S 29°47' E 031°12'0 0.0
2015-Jan-18 16:30S 29°47' E 031°12'0 0.0
2015-Jan-18 14:18S 29°47' E 031°12'0 0.0
2015-Jan-18 13:24S 29°47' E 031°12'0 0.0
2015-Jan-18 12:33S 29°47' E 031°12'0 0.0
2015-Jan-18 11:31S 29°47' E 031°12'0 0.0
2015-Jan-18 10:25S 29°47' E 031°12'0 0.0
2015-Jan-18 09:27S 29°47' E 031°12'0 0.0
2015-Jan-18 08:33S 29°47' E 031°12'0 0.0
2015-Jan-18 07:33S 29°47' E 031°12'0 0.0
2015-Jan-18 05:33S 29°47' E 031°12'0 0.0
2015-Jan-18 04:33S 29°47' E 031°12'0 0.0
2015-Jan-18 03:33S 29°47' E 031°12'0 0.0
2015-Jan-18 02:26S 29°47' E 031°12'0 0.0
2015-Jan-18 01:29S 29°47' E 031°12'0 0.0
2015-Jan-18 00:28S 29°47' E 031°12'0 0.0
2015-Jan-17 23:32S 29°47' E 031°12'0 0.0
2015-Jan-17 22:24S 29°47' E 031°12'0 0.0
2015-Jan-17 21:12S 29°47' E 031°12'0 0.0
2015-Jan-17 20:31S 29°47' E 031°12'0 0.0
2015-Jan-17 19:17S 29°47' E 031°12'3 3.9
2015-Jan-17 18:34S 29°48' E 031°09'8 7.7
2015-Jan-17 17:32S 29°53' E 031°02'0 0.0
2015-Jan-17 16:14S 29°53' E 031°02'0 0.0
2015-Jan-17 15:32S 29°53' E 031°02'0 0.0
2015-Jan-17 14:32S 29°53' E 031°02'0 0.0
2015-Jan-17 13:26S 29°53' E 031°02'0 0.0
2015-Jan-17 12:32S 29°53' E 031°02'0 0.0
2015-Jan-17 11:20S 29°53' E 031°02'0 0.0
2015-Jan-17 10:32S 29°53' E 031°02'0 0.0
2015-Jan-17 09:32S 29°53' E 031°02'0 0.0
2015-Jan-17 08:32S 29°53' E 031°02'0 0.0
2015-Jan-17 07:20S 29°53' E 031°02'0 0.0
2015-Jan-17 06:32S 29°53' E 031°02'0 0.0
2015-Jan-17 05:26S 29°53' E 031°02'0 0.0
2015-Jan-16 18:20S 29°53' E 031°02'0 0.0
2015-Jan-16 17:26S 29°53' E 031°02'0 0.0
2015-Jan-16 16:32S 29°53' E 031°02'0 0.0
2015-Jan-16 14:26S 29°53' E 031°02'0 0.0
2015-Jan-16 13:32S 29°53' E 031°02'0 0.0
2015-Jan-16 12:26S 29°53' E 031°02'0 0.0
2015-Jan-16 09:32S 29°53' E 031°02'0 0.0
2015-Jan-16 08:20S 29°53' E 031°02'0 0.0
2015-Jan-16 07:26S 29°53' E 031°02'0 0.0
2015-Jan-16 06:26S 29°53' E 031°02'0 0.0
2015-Jan-16 05:32S 29°53' E 031°02'0 0.0
2015-Jan-16 04:20S 29°53' E 031°02'0 0.0
2015-Jan-15 22:14S 29°53' E 031°02'0 0.0
2015-Jan-15 20:32S 29°53' E 031°02'0 0.0
2015-Jan-15 19:26S 29°53' E 031°02'0 0.0
2015-Jan-15 18:14S 29°53' E 031°02'0 0.0
2015-Jan-15 17:14S 29°53' E 031°02'0 0.0
2015-Jan-15 16:08S 29°53' E 031°02'0 0.0
2015-Jan-15 15:26S 29°53' E 031°02'0 0.0
2015-Jan-15 14:26S 29°53' E 031°02'0 0.0
2015-Jan-15 13:32S 29°53' E 031°02'0 0.0
2015-Jan-15 11:32S 29°53' E 031°02'0 0.0
2015-Jan-15 10:32S 29°53' E 031°02'0 0.0
2015-Jan-15 09:32S 29°53' E 031°02'0 0.0
2015-Jan-15 08:32S 29°53' E 031°02'0 0.0
2015-Jan-15 07:20S 29°53' E 031°02'0 0.0
2015-Jan-15 05:32S 29°53' E 031°02'0 0.0
2015-Jan-15 04:32S 29°53' E 031°02'0 0.0
2015-Jan-15 03:32S 29°53' E 031°02'0 0.0
2015-Jan-15 02:14S 29°53' E 031°02'0 0.0
2015-Jan-15 01:26S 29°53' E 031°02'0 0.0
2015-Jan-15 00:26S 29°53' E 031°02'0 0.0
2015-Jan-14 23:32S 29°53' E 031°02'0 0.0
2015-Jan-14 22:32S 29°53' E 031°02'0 0.0
2015-Jan-14 21:32S 29°53' E 031°02'0 0.0
2015-Jan-14 20:32S 29°53' E 031°02'0 0.0
2015-Jan-14 19:20S 29°53' E 031°02'0 0.0
2015-Jan-14 17:14S 29°53' E 031°02'0 0.0
2015-Jan-14 16:26S 29°53' E 031°02'0 0.0
2015-Jan-14 15:32S 29°53' E 031°02'0 0.0
2015-Jan-14 14:20S 29°53' E 031°02'0 0.0
2015-Jan-14 13:32S 29°53' E 031°02'0 0.0
2015-Jan-14 12:32S 29°53' E 031°02'0 0.0
2015-Jan-14 11:20S 29°53' E 031°02'0 0.0
2015-Jan-14 10:32S 29°53' E 031°02'  

Dump ship's entire track history